Time;durP1;ratioP1;P1;durP2;ratioP2;P2;SDS_P1;SDS_P2;PMS_P1;PMS_P2;Temp;Humidity;BMP_temperature;BMP_pressure;BME280_temperature;BME280_humidity;BME280_pressure;Samples;Min_cycle;Max_cycle;Signal;HPM_P1;HPM_P2
2021/11/10 00:00:49;;;;;;;0.62;0.62;;;;;;;4.17;58.52;102042.38;469348;110;922627;-83
2021/11/10 00:01:53;;;;;;;0.49;0.49;;;;;;;4.17;58.63;102045.92;469481;109;922603;-83
2021/11/10 00:02:58;;;;;;;0.38;0.38;;;;;;;4.18;58.67;102044.09;469377;110;930275;-83
2021/11/10 00:04:02;;;;;;;0.66;0.66;;;;;;;4.18;58.64;102049.48;469205;109;923099;-81
2021/11/10 00:05:07;;;;;;;0.60;0.60;;;;;;;4.16;58.55;102040.66;469462;110;922550;-83
2021/11/10 00:06:13;;;;;;;0.60;0.60;;;;;;;4.14;58.51;102050.73;470273;109;922516;-83
2021/11/10 00:07:17;;;;;;;1.16;0.68;;;;;;;4.13;58.58;102046.34;469588;110;923390;-82
2021/11/10 00:08:20;;;;;;;1.59;0.69;;;;;;;4.13;58.65;102057.14;469593;109;922724;-83
2021/11/10 00:09:24;;;;;;;0.58;0.58;;;;;;;4.11;58.62;102051.88;469187;110;922641;-83
2021/11/10 00:10:29;;;;;;;0.49;0.49;;;;;;;4.13;58.65;102052.60;469840;110;922661;-82
2021/11/10 00:11:35;;;;;;;0.62;0.60;;;;;;;4.13;58.73;102059.84;470329;110;922952;-82
2021/11/10 00:12:40;;;;;;;0.54;0.54;;;;;;;4.12;58.79;102053.59;469841;109;922704;-83
2021/11/10 00:13:44;;;;;;;0.58;0.50;;;;;;;4.14;58.88;102054.28;469195;111;922808;-83
2021/11/10 00:14:48;;;;;;;0.88;0.76;;;;;;;4.15;58.92;102055.14;470905;110;922479;-84
2021/11/10 00:15:53;;;;;;;0.91;0.66;;;;;;;4.17;58.95;102061.27;470384;109;922687;-82
2021/11/10 00:16:57;;;;;;;0.53;0.51;;;;;;;4.16;58.60;102063.11;470246;109;922602;-82
2021/11/10 00:18:01;;;;;;;0.40;0.40;;;;;;;4.15;58.70;102065.94;469365;109;922632;-83
2021/11/10 00:19:04;;;;;;;0.51;0.51;;;;;;;4.14;58.84;102065.08;470212;109;922739;-83
2021/11/10 00:20:10;;;;;;;0.63;0.56;;;;;;;4.17;58.93;102075.62;469702;109;923030;-82
2021/11/10 00:21:14;;;;;;;0.52;0.51;;;;;;;4.16;58.79;102065.81;470198;110;922511;-82
2021/11/10 00:22:18;;;;;;;0.62;0.60;;;;;;;4.16;58.83;102073.05;470547;110;922552;-82
2021/11/10 00:23:22;;;;;;;0.41;0.41;;;;;;;4.15;58.74;102077.59;469440;110;922971;-82
2021/11/10 00:24:25;;;;;;;0.54;0.54;;;;;;;4.15;58.35;102076.73;470075;110;922626;-82
2021/11/10 00:25:29;;;;;;;0.82;0.41;;;;;;;4.13;58.47;102067.94;469905;110;922584;-83
2021/11/10 00:26:33;;;;;;;0.56;0.50;;;;;;;4.11;58.51;102078.00;469281;109;930651;-82
2021/11/10 00:27:37;;;;;;;0.46;0.46;;;;;;;4.10;58.66;102073.59;456650;113;922550;-81
2021/11/10 00:28:42;;;;;;;0.70;0.48;;;;;;;4.09;58.43;102075.44;454721;113;922482;-81
2021/11/10 00:29:47;;;;;;;0.97;0.47;;;;;;;4.09;58.45;102083.53;455641;113;922549;-83
2021/11/10 00:30:51;;;;;;;1.22;0.65;;;;;;;4.08;58.27;102083.69;456424;114;930036;-83
2021/11/10 00:31:55;;;;;;;0.54;0.44;;;;;;;4.05;58.30;102089.34;455559;114;922358;-82
2021/11/10 00:32:59;;;;;;;0.52;0.50;;;;;;;4.03;58.27;102080.52;443597;117;922242;-83
2021/11/10 00:34:04;;;;;;;0.53;0.52;;;;;;;4.01;58.00;102086.08;464381;111;922033;-83
2021/11/10 00:35:08;;;;;;;0.75;0.61;;;;;;;4.03;57.86;102089.47;470611;110;923140;-82
2021/11/10 00:36:14;;;;;;;0.40;0.40;;;;;;;4.03;57.93;102084.08;468887;109;923552;-82
2021/11/10 00:37:20;;;;;;;0.49;0.49;;;;;;;4.04;58.17;102093.03;469711;109;923166;-82
2021/11/10 00:38:24;;;;;;;0.46;0.46;;;;;;;4.06;57.85;102091.06;469378;110;922652;-83
2021/11/10 00:39:28;;;;;;;0.50;0.50;;;;;;;4.09;57.70;102090.77;469947;109;923032;-83
2021/11/10 00:40:32;;;;;;;0.51;0.42;;;;;;;4.10;57.49;102089.78;470488;109;923067;-82
2021/11/10 00:41:36;;;;;;;1.65;0.40;;;;;;;4.10;57.49;102092.48;469388;110;922964;-83
2021/11/10 00:42:40;;;;;;;0.66;0.62;;;;;;;4.08;57.47;102094.48;469378;109;922532;-84
2021/11/10 00:43:45;;;;;;;0.71;0.39;;;;;;;4.10;57.24;102105.98;470860;110;922622;-81
2021/11/10 00:44:48;;;;;;;0.30;0.30;;;;;;;4.09;57.20;102101.57;470111;110;922713;-81
2021/11/10 00:45:52;;;;;;;0.39;0.39;;;;;;;4.07;56.87;102098.17;469855;109;922596;-83
2021/11/10 00:46:56;;;;;;;0.88;0.81;;;;;;;4.04;56.83;102110.08;469703;109;922566;-83
2021/11/10 00:48:00;;;;;;;0.29;0.29;;;;;;;4.04;56.57;102104.68;469694;111;922672;-83
2021/11/10 00:49:04;;;;;;;0.61;0.61;;;;;;;4.04;56.39;102101.13;470072;109;922653;-81
2021/11/10 00:50:09;;;;;;;0.51;0.51;;;;;;;4.05;56.43;102105.53;470916;109;923168;-83
2021/11/10 00:51:13;;;;;;;0.54;0.54;;;;;;;4.05;56.37;102116.33;469354;110;922681;-81
2021/11/10 00:52:16;;;;;;;0.42;0.39;;;;;;;4.06;56.17;102118.05;470430;109;923003;-82
2021/11/10 00:53:20;;;;;;;0.44;0.44;;;;;;;4.06;56.26;102120.75;469955;110;922662;-82
2021/11/10 00:54:25;;;;;;;0.60;0.54;;;;;;;4.06;56.07;102123.45;470186;109;922787;-83
2021/11/10 00:55:29;;;;;;;0.47;0.45;;;;;;;4.06;55.73;102124.30;468467;109;930265;-83
2021/11/10 00:56:33;;;;;;;0.34;0.34;;;;;;;4.06;55.71;102129.70;469888;110;922680;-82
2021/11/10 00:57:37;;;;;;;0.30;0.30;;;;;;;4.06;55.52;102131.55;471102;109;922804;-81
2021/11/10 00:58:41;;;;;;;1.08;0.41;;;;;;;4.05;55.30;102129.83;469417;110;922511;-83
2021/11/10 00:59:45;;;;;;;0.42;0.42;;;;;;;4.04;55.58;102133.52;469386;109;922453;-82
2021/11/10 01:00:50;;;;;;;0.42;0.39;;;;;;;4.04;55.44;102137.06;469395;109;922797;-82
2021/11/10 01:01:55;;;;;;;0.62;0.48;;;;;;;4.06;55.55;102134.24;468320;110;922534;-81
2021/11/10 01:02:59;;;;;;;0.39;0.39;;;;;;;4.08;55.16;102143.89;469653;109;922567;-83
2021/11/10 01:04:03;;;;;;;1.00;0.65;;;;;;;4.10;55.12;102143.77;464566;112;922721;-82
2021/11/10 01:05:07;;;;;;;0.52;0.40;;;;;;;4.09;54.90;102132.12;465088;111;922715;-82
2021/11/10 01:06:12;;;;;;;0.57;0.57;;;;;;;4.10;55.02;102141.07;468260;109;922599;-82
2021/11/10 01:07:16;;;;;;;0.56;0.46;;;;;;;4.10;54.75;102146.47;460312;112;922883;-82
2021/11/10 01:08:20;;;;;;;0.56;0.40;;;;;;;4.10;54.91;102151.87;453111;114;923030;-83
2021/11/10 01:09:24;;;;;;;0.59;0.45;;;;;;;4.12;54.96;102155.30;454402;114;922626;-82
2021/11/10 01:10:31;;;;;;;0.32;0.32;;;;;;;4.12;54.63;102158.00;454863;114;922615;-81
2021/11/10 01:11:35;;;;;;;0.30;0.30;;;;;;;4.13;54.72;102163.27;461408;112;923405;-82
2021/11/10 01:12:39;;;;;;;0.31;0.31;;;;;;;4.14;54.80;102166.80;455753;114;922973;-83
2021/11/10 01:13:43;;;;;;;0.48;0.48;;;;;;;4.15;54.89;102169.37;454518;114;930644;-84
2021/11/10 01:14:47;;;;;;;0.32;0.32;;;;;;;4.17;54.65;102172.80;454616;114;922749;-82
2021/11/10 01:15:51;;;;;;;0.58;0.48;;;;;;;4.19;54.37;102167.25;454388;114;922631;-82
2021/11/10 01:16:56;;;;;;;0.61;0.61;;;;;;;4.18;54.28;102166.42;453646;114;922581;-83
2021/11/10 01:18:02;;;;;;;0.58;0.53;;;;;;;4.18;54.06;102181.77;455067;114;922401;-83
2021/11/10 01:19:06;;;;;;;0.50;0.49;;;;;;;4.16;53.88;102164.83;456858;113;922007;-81
2021/11/10 01:20:12;;;;;;;0.54;0.54;;;;;;;4.11;53.54;102165.23;461623;110;930194;-82
2021/11/10 01:21:16;;;;;;;1.05;0.95;;;;;;;4.07;53.82;102171.05;456626;110;922271;-81
2021/11/10 01:22:20;;;;;;;14.98;1.77;;;;;;;4.05;54.01;102168.47;457487;114;922323;-82
2021/11/10 01:23:24;;;;;;;2.32;1.60;;;;;;;4.05;54.14;102170.31;459514;113;922651;-81
2021/11/10 01:24:28;;;;;;;3.02;2.39;;;;;;;4.06;54.17;102164.79;460502;112;922739;-82
2021/11/10 01:25:32;;;;;;;3.61;2.30;;;;;;;4.06;54.25;102169.33;460206;113;923100;-82
2021/11/10 01:26:37;;;;;;;1.78;1.25;;;;;;;4.07;54.05;102173.75;459973;113;922987;-82
2021/11/10 01:27:41;;;;;;;1.16;1.03;;;;;;;4.08;54.00;102167.36;461082;112;922601;-81
2021/11/10 01:28:45;;;;;;;1.68;1.49;;;;;;;4.06;54.23;102170.19;461045;113;922533;-81
2021/11/10 01:29:50;;;;;;;3.89;3.55;;;;;;;4.09;54.43;102182.55;459179;113;930305;-81
2021/11/10 01:30:54;;;;;;;2.79;2.57;;;;;;;4.11;54.23;102183.28;460657;113;930573;-82
2021/11/10 01:32:00;;;;;;;3.39;2.90;;;;;;;4.11;53.90;102181.44;459848;113;922848;-82
2021/11/10 01:33:05;;;;;;;2.78;2.58;;;;;;;4.09;53.82;102186.09;452089;115;923352;-80
2021/11/10 01:34:08;;;;;;;2.32;1.71;;;;;;;4.09;54.04;102188.80;453946;113;923104;-83
2021/11/10 01:35:14;;;;;;;1.65;1.55;;;;;;;4.09;53.94;102185.23;459517;113;930352;-82
2021/11/10 01:36:19;;;;;;;1.28;1.18;;;;;;;4.07;53.90;102181.84;461792;113;922622;-82
2021/11/10 01:37:23;;;;;;;0.92;0.89;;;;;;;4.05;53.86;102181.97;458886;113;930201;-82
2021/11/10 01:38:26;;;;;;;0.76;0.76;;;;;;;4.05;53.98;102189.20;470785;110;922857;-81
2021/11/10 01:39:30;;;;;;;1.03;0.63;;;;;;;4.05;54.12;102186.50;471149;110;922624;-82
2021/11/10 01:40:35;;;;;;;0.76;0.65;;;;;;;4.05;54.14;102187.36;470606;109;922964;-82
2021/11/10 01:41:48;;;;;;;0.40;0.40;;;;;;;4.08;54.17;102192.48;469222;109;922630;-81
2021/11/10 01:42:56;;;;;;;0.75;0.75;;;;;;;4.09;53.93;102186.09;470461;109;922512;-82
2021/11/10 01:43:59;;;;;;;0.62;0.58;;;;;;;4.08;53.86;102187.08;470081;109;922717;-82
2021/11/10 01:45:03;;;;;;;0.75;0.58;;;;;;;4.06;53.96;102190.92;469223;110;922863;-81
2021/11/10 01:46:07;;;;;;;0.64;0.60;;;;;;;4.03;54.02;102194.73;468747;110;922680;-81
2021/11/10 01:47:13;;;;;;;0.65;0.65;;;;;;;4.01;54.11;102185.93;469595;109;922898;-82
2021/11/10 01:48:18;;;;;;;1.08;0.96;;;;;;;4.00;54.27;102186.05;468594;110;924216;-82
2021/11/10 01:49:23;;;;;;;1.21;1.12;;;;;;;3.98;54.36;102199.67;469236;110;922608;-81
2021/11/10 01:50:27;;;;;;;1.09;0.99;;;;;;;3.96;54.27;102190.88;469018;110;922783;-81
2021/11/10 01:51:31;;;;;;;1.35;1.25;;;;;;;3.93;54.35;102201.91;469815;110;922974;-82
2021/11/10 01:52:35;;;;;;;1.26;1.16;;;;;;;3.89;54.54;102197.78;471207;109;923784;-82
2021/11/10 01:53:39;;;;;;;2.19;2.03;;;;;;;3.87;54.62;102190.78;470744;109;922565;-82
2021/11/10 01:54:43;;;;;;;2.64;2.44;;;;;;;3.84;54.66;102200.02;469954;110;923029;-83
2021/11/10 01:55:49;;;;;;;2.11;1.71;;;;;;;3.83;54.82;102197.44;468729;111;922521;-81
2021/11/10 01:56:53;;;;;;;2.01;1.75;;;;;;;3.82;54.81;102199.28;468818;110;922489;-82
2021/11/10 01:57:59;;;;;;;2.13;1.92;;;;;;;3.82;54.86;102193.89;469379;110;923366;-81
2021/11/10 01:59:03;;;;;;;2.20;2.00;;;;;;;3.82;55.02;102206.52;470300;110;923156;-82
2021/11/10 02:00:13;;;;;;;2.61;1.62;;;;;;;3.79;55.04;102199.56;469411;109;922769;-81
2021/11/10 02:01:23;;;;;;;2.63;1.81;;;;;;;3.76;55.12;102206.06;470916;109;923030;-80
2021/11/10 02:02:30;;;;;;;2.12;1.92;;;;;;;3.72;55.85;102207.31;462033;112;922756;-81
2021/11/10 02:03:35;;;;;;;2.59;1.48;;;;;;;3.68;56.09;102203.17;461545;110;922746;-81
2021/11/10 02:04:56;;;;;;;1.21;1.12;;;;;;;3.67;55.91;102208.70;471043;109;922280;-84
2021/11/10 02:06:04;;;;;;;1.19;1.09;;;;;;;3.66;55.51;102215.92;465634;109;922823;-82
2021/11/10 02:07:10;;;;;;;1.96;1.24;;;;;;;3.65;55.45;102213.35;466562;111;922337;-80
2021/11/10 02:08:14;;;;;;;1.62;1.44;;;;;;;3.64;55.45;102220.58;470719;109;922599;-81
2021/11/10 02:09:21;;;;;;;1.12;1.07;;;;;;;3.61;54.57;102218.16;471803;109;922915;-81
2021/11/10 02:10:28;;;;;;;3.86;1.37;;;;;;;3.57;54.39;102219.41;469741;109;922493;-82
2021/11/10 02:11:34;;;;;;;1.37;1.22;;;;;;;3.50;53.89;102215.52;462947;111;922189;-80
2021/11/10 02:12:41;;;;;;;1.27;1.21;;;;;;;3.46;54.15;102227.55;463564;110;922455;-82
2021/11/10 02:13:46;;;;;;;1.22;1.12;;;;;;;3.44;53.82;102220.56;471492;107;922288;-82
2021/11/10 02:14:51;;;;;;;2.39;1.29;;;;;;;3.42;53.95;102222.55;471042;109;922133;-81
2021/11/10 02:15:56;;;;;;;1.31;1.08;;;;;;;3.42;54.03;102222.55;471142;109;922137;-81
2021/11/10 02:17:00;;;;;;;1.19;1.19;;;;;;;3.44;53.99;102232.20;465496;111;922429;-80
2021/11/10 02:18:05;;;;;;;2.11;1.09;;;;;;;3.46;53.86;102230.25;466355;111;925329;-79
2021/11/10 02:19:11;;;;;;;1.42;1.32;;;;;;;3.49;53.92;102237.20;466240;112;922627;-80
2021/11/10 02:20:18;;;;;;;1.28;1.10;;;;;;;3.49;53.28;102229.12;466203;111;922279;-80
2021/11/10 02:21:24;;;;;;;1.23;1.08;;;;;;;3.50;53.55;102234.39;472464;111;922290;-80
2021/11/10 02:22:28;;;;;;;2.67;1.21;;;;;;;3.50;53.55;102234.39;471918;110;922422;-80
2021/11/10 02:23:32;;;;;;;1.48;1.26;;;;;;;3.52;53.66;102243.22;471628;109;922524;-80
2021/11/10 02:24:37;;;;;;;1.37;1.17;;;;;;;3.55;53.48;102245.64;466992;111;922349;-79
2021/11/10 02:25:41;;;;;;;1.28;1.08;;;;;;;3.59;53.60;102255.18;466292;110;922397;-83
2021/11/10 02:26:45;;;;;;;1.35;1.22;;;;;;;3.62;53.11;102263.03;471824;109;922335;-80
2021/11/10 02:27:49;;;;;;;1.59;1.19;;;;;;;3.62;52.95;102259.48;472310;109;922306;-81
2021/11/10 02:28:53;;;;;;;1.47;1.37;;;;;;;3.60;52.98;102262.30;470786;109;922617;-80
2021/11/10 02:29:58;;;;;;;1.58;1.32;;;;;;;3.60;53.06;102267.69;471744;109;922573;-80
2021/11/10 02:31:02;;;;;;;1.79;1.34;;;;;;;3.62;53.17;102267.56;470790;110;922389;-81
2021/11/10 02:32:10;;;;;;;1.45;1.35;;;;;;;3.64;52.95;102276.37;471788;109;922187;-81
2021/11/10 02:33:18;;;;;;;1.79;1.56;;;;;;;3.65;53.08;102261.91;470032;111;922126;-81
2021/11/10 02:34:22;;;;;;;2.26;2.06;;;;;;;3.66;53.01;102272.57;470646;109;922257;-82
2021/11/10 02:35:29;;;;;;;5.55;2.21;;;;;;;3.65;52.78;102275.39;469439;109;922563;-80
2021/11/10 02:36:35;;;;;;;2.89;2.15;;;;;;;3.63;52.77;102278.23;466680;111;922384;-81
2021/11/10 02:37:39;;;;;;;2.47;1.99;;;;;;;3.61;52.78;102276.64;467195;109;922390;-80
2021/11/10 02:38:44;;;;;;;1.69;1.56;;;;;;;3.56;52.61;102271.63;471314;110;929886;-82
2021/11/10 02:39:49;;;;;;;2.77;2.29;;;;;;;3.54;52.85;102280.82;472104;109;930060;-83
2021/11/10 02:40:55;;;;;;;2.70;1.91;;;;;;;3.53;52.96;102292.62;471462;109;922278;-81
2021/11/10 02:41:59;;;;;;;1.94;1.66;;;;;;;3.51;53.13;102286.48;470892;110;922122;-82
2021/11/10 02:43:04;;;;;;;2.00;1.56;;;;;;;3.51;53.16;102295.44;470996;109;922761;-81
2021/11/10 02:44:10;;;;;;;1.68;1.56;;;;;;;3.51;53.26;102292.73;471009;109;922576;-81
2021/11/10 02:45:13;;;;;;;1.28;1.18;;;;;;;3.50;53.28;102293.72;471443;109;922931;-79
2021/11/10 02:46:18;;;;;;;1.57;1.23;;;;;;;3.52;53.45;102310.64;471387;110;922371;-81
2021/11/10 02:47:22;;;;;;;1.74;1.10;;;;;;;3.53;53.46;102304.23;470913;109;922163;-80
2021/11/10 02:48:26;;;;;;;1.19;0.93;;;;;;;3.55;53.56;102302.28;472092;109;922116;-81
2021/11/10 02:49:30;;;;;;;2.49;1.14;;;;;;;3.60;53.65;102313.53;470826;109;923249;-82
2021/11/10 02:50:35;;;;;;;1.06;0.97;;;;;;;3.63;53.58;102324.09;470659;111;923535;-81
2021/11/10 02:51:59;;;;;;;1.15;0.84;;;;;;;3.66;53.54;102321.13;471066;109;922845;-81
2021/11/10 02:53:03;;;;;;;0.65;0.60;;;;;;;3.67;53.12;102316.59;462594;111;922250;-81
2021/11/10 02:54:10;;;;;;;0.57;0.54;;;;;;;3.63;52.30;102318.70;463531;110;922720;-82
2021/11/10 02:55:14;;;;;;;0.88;0.51;;;;;;;3.58;51.75;102329.02;471850;109;922129;-81
2021/11/10 02:56:18;;;;;;;0.62;0.62;;;;;;;3.55;51.74;102325.69;470775;109;922731;-80
2021/11/10 02:57:24;;;;;;;0.69;0.68;;;;;;;3.50;51.64;102326.08;470765;109;922324;-81
2021/11/10 02:58:33;;;;;;;0.99;0.53;;;;;;;3.47;51.61;102330.88;470844;110;922542;-83
2021/11/10 02:59:38;;;;;;;0.72;0.50;;;;;;;3.43;51.20;102338.34;461829;111;922254;-80
2021/11/10 03:00:43;;;;;;;0.66;0.66;;;;;;;3.41;51.06;102329.55;468614;110;922726;-82
2021/11/10 03:01:48;;;;;;;0.70;0.69;;;;;;;3.36;50.89;102339.84;475538;109;922864;-81
2021/11/10 03:02:52;;;;;;;1.24;0.81;;;;;;;3.34;50.93;102342.66;469064;110;922259;-82
2021/11/10 03:03:56;;;;;;;1.19;0.79;;;;;;;3.33;51.04;102342.77;470140;110;927671;-81
2021/11/10 03:05:00;;;;;;;2.11;0.76;;;;;;;3.34;51.32;102344.50;470252;109;923477;-79
2021/11/10 03:06:04;;;;;;;1.08;0.84;;;;;;;3.36;51.16;102331.76;464714;112;922761;-80
2021/11/10 03:07:10;;;;;;;0.69;0.68;;;;;;;3.39;51.06;102344.12;465769;109;922558;-81
2021/11/10 03:08:20;;;;;;;1.21;0.82;;;;;;;3.38;50.88;102345.95;465132;111;922740;-80
2021/11/10 03:09:32;;;;;;;0.98;0.91;;;;;;;3.49;50.57;102364.80;483615;108;946771;-80
2021/11/10 03:10:39;;;;;;;1.28;1.18;;;;;;;3.35;50.48;102349.77;473705;109;922832;-81
2021/11/10 03:11:43;;;;;;;1.20;0.91;;;;;;;3.32;50.29;102365.31;472491;110;922793;-80
2021/11/10 03:12:48;;;;;;;1.26;1.12;;;;;;;3.30;50.41;102351.98;473368;110;922518;-79
2021/11/10 03:13:54;;;;;;;1.12;0.92;;;;;;;3.28;50.39;102351.24;473951;109;922629;-81
2021/11/10 03:14:58;;;;;;;1.06;0.98;;;;;;;3.29;50.58;102354.80;472511;110;922812;-80
2021/11/10 03:16:02;;;;;;;1.75;1.14;;;;;;;3.30;50.50;102356.52;472279;110;923369;-82
2021/11/10 03:17:09;;;;;;;1.24;1.05;;;;;;;3.30;50.45;102351.98;472095;110;923211;-78
2021/11/10 03:18:14;;;;;;;1.38;1.17;;;;;;;3.31;50.35;102358.20;472631;111;922540;-79
2021/11/10 03:19:20;;;;;;;1.33;1.31;;;;;;;3.31;50.50;102360.91;472890;110;922719;-81
2021/11/10 03:20:25;;;;;;;1.39;1.29;;;;;;;3.31;50.35;102356.38;461997;112;922667;-79
2021/11/10 03:21:29;;;;;;;1.56;1.42;;;;;;;3.31;50.59;102363.59;462790;110;930299;-79
2021/11/10 03:22:33;;;;;;;1.48;1.23;;;;;;;3.31;50.63;102367.16;472736;110;922554;-80
2021/11/10 03:23:37;;;;;;;1.34;1.25;;;;;;;3.33;50.62;102357.11;473108;110;922546;-81
2021/11/10 03:24:42;;;;;;;1.72;1.35;;;;;;;3.35;50.70;102365.09;472879;110;922439;-80
2021/11/10 03:25:46;;;;;;;1.34;1.21;;;;;;;3.38;50.53;102362.13;473258;110;922763;-82
2021/11/10 03:26:50;;;;;;;1.38;1.28;;;;;;;3.41;50.19;102371.82;473211;111;923046;-79
2021/11/10 03:27:54;;;;;;;1.26;1.22;;;;;;;3.40;50.02;102367.41;472061;110;922608;-80
2021/11/10 03:29:02;;;;;;;1.42;1.09;;;;;;;3.39;49.99;102365.69;472510;110;922691;-84
2021/11/10 03:30:05;;;;;;;1.53;1.23;;;;;;;3.36;50.19;102373.03;472564;111;922561;-80
2021/11/10 03:31:14;;;;;;;1.39;1.23;;;;;;;3.36;50.15;102375.72;467458;111;922873;-81
2021/11/10 03:32:19;;;;;;;1.78;1.68;;;;;;;3.33;50.07;102367.04;473037;110;922580;-81
2021/11/10 03:33:23;;;;;;;2.23;1.73;;;;;;;3.31;50.07;102369.84;472494;109;922553;-80
2021/11/10 03:34:27;;;;;;;1.60;1.50;;;;;;;3.30;50.29;102375.39;472427;110;922612;-79
2021/11/10 03:35:31;;;;;;;1.42;1.32;;;;;;;3.29;50.35;102377.23;473526;110;922553;-81
2021/11/10 03:36:36;;;;;;;1.08;1.00;;;;;;;3.27;49.97;102376.48;472854;110;922664;-81
2021/11/10 03:37:41;;;;;;;1.59;1.16;;;;;;;3.25;50.02;102382.99;472544;110;922577;-81
2021/11/10 03:38:46;;;;;;;1.44;1.30;;;;;;;3.21;49.85;102392.28;472771;110;922673;-80
2021/11/10 03:39:51;;;;;;;1.64;1.40;;;;;;;3.18;49.81;102384.45;473136;110;922426;-81
2021/11/10 03:40:55;;;;;;;2.09;1.59;;;;;;;3.15;50.05;102382.85;473465;110;922147;-81
2021/11/10 03:42:01;;;;;;;2.50;1.50;;;;;;;3.14;50.07;102391.91;473543;110;922381;-81
2021/11/10 03:43:05;;;;;;;2.24;1.58;;;;;;;3.12;49.97;102395.72;473625;110;922532;-81
2021/11/10 03:44:09;;;;;;;2.25;1.69;;;;;;;3.09;50.15;102394.12;462827;112;922744;-80
2021/11/10 03:45:15;;;;;;;4.58;1.69;;;;;;;3.07;50.32;102397.94;463604;112;922684;-79
2021/11/10 03:46:22;;;;;;;1.53;1.43;;;;;;;3.05;50.57;102394.48;472202;110;922529;-79
2021/11/10 03:47:27;;;;;;;1.78;1.36;;;;;;;3.07;50.59;102390.70;473135;110;922674;-81
2021/11/10 03:48:31;;;;;;;1.23;1.10;;;;;;;3.09;50.43;102398.68;473305;110;922523;-81
2021/11/10 03:49:34;;;;;;;1.06;0.98;;;;;;;3.10;50.29;102403.92;462813;112;922969;-81
2021/11/10 03:50:40;;;;;;;1.68;0.96;;;;;;;3.10;49.79;102403.92;463341;111;923171;-78
2021/11/10 03:51:44;;;;;;;1.51;0.80;;;;;;;3.07;49.87;102403.32;462519;112;922745;-80
2021/11/10 03:52:48;;;;;;;1.06;0.89;;;;;;;3.04;50.02;102404.41;461867;111;922686;-81
2021/11/10 03:53:53;;;;;;;1.98;1.25;;;;;;;3.02;49.96;102405.52;472242;110;922600;-81
2021/11/10 03:54:57;;;;;;;1.47;0.94;;;;;;;3.00;50.04;102405.64;454212;114;922751;-80
2021/11/10 03:56:04;;;;;;;2.39;2.16;;;;;;;2.98;49.99;102407.58;454749;114;922434;-80
2021/11/10 03:57:08;;;;;;;2.97;2.46;;;;;;;2.93;50.15;102401.70;462833;111;922817;-82
2021/11/10 03:58:12;;;;;;;2.48;2.24;;;;;;;2.93;50.78;102402.56;472709;110;922490;-79
2021/11/10 03:59:18;;;;;;;2.39;1.84;;;;;;;2.92;50.71;102410.79;473025;109;922657;-81
2021/11/10 04:00:23;;;;;;;2.14;1.58;;;;;;;2.88;50.29;102429.02;472959;109;923556;-78
2021/11/10 04:01:28;;;;;;;1.84;1.09;;;;;;;2.88;50.25;102409.30;472793;110;922731;-80
2021/11/10 04:02:33;;;;;;;2.69;1.36;;;;;;;2.86;50.32;102417.52;472831;110;922525;-80
2021/11/10 04:03:37;;;;;;;2.34;0.95;;;;;;;2.84;50.21;102419.46;472453;110;922513;-82
2021/11/10 04:04:41;;;;;;;1.96;1.04;;;;;;;2.82;50.24;102418.71;472510;110;922511;-81
2021/11/10 04:05:45;;;;;;;1.55;0.90;;;;;;;2.80;50.23;102423.38;473482;110;922740;-80
2021/11/10 04:06:49;;;;;;;2.06;0.98;;;;;;;2.79;50.16;102421.66;471874;110;922428;-79
2021/11/10 04:07:53;;;;;;;3.18;1.03;;;;;;;2.75;50.06;102414.80;472311;109;922520;-80
2021/11/10 04:08:57;;;;;;;1.96;1.05;;;;;;;2.74;50.25;102429.24;472142;110;922574;-81
2021/11/10 04:10:01;;;;;;;2.26;0.95;;;;;;;2.73;50.40;102424.83;467337;112;922464;-82
2021/11/10 04:11:05;;;;;;;3.14;1.26;;;;;;;2.72;50.22;102433.02;467158;111;922896;-81
2021/11/10 04:12:10;;;;;;;2.22;1.26;;;;;;;2.70;50.96;102441.20;467070;111;922476;-81
2021/11/10 04:13:16;;;;;;;1.64;1.29;;;;;;;2.67;50.80;102427.13;467582;112;923110;-82
2021/11/10 04:14:22;;;;;;;3.63;1.44;;;;;;;2.60;50.47;102437.51;466766;111;922645;-80
2021/11/10 04:15:26;;;;;;;1.38;1.28;;;;;;;2.59;50.59;102440.34;466116;111;922755;-81
2021/11/10 04:16:31;;;;;;;3.33;2.45;;;;;;;2.59;50.79;102445.73;466682;111;922731;-80
2021/11/10 04:17:35;;;;;;;2.43;1.79;;;;;;;2.59;50.82;102451.12;466088;112;922653;-82
2021/11/10 04:18:39;;;;;;;2.91;1.73;;;;;;;2.59;50.74;102449.28;467016;111;922615;-83
2021/11/10 04:19:45;;;;;;;2.01;1.51;;;;;;;2.60;50.59;102452.80;466074;111;922717;-82
2021/11/10 04:20:48;;;;;;;1.38;1.21;;;;;;;2.60;50.64;102452.80;466659;112;923087;-82
2021/11/10 04:21:52;;;;;;;1.94;1.24;;;;;;;2.60;50.41;102450.11;466991;111;923077;-81
2021/11/10 04:22:56;;;;;;;2.83;1.65;;;;;;;2.60;50.48;102450.97;465585;112;922520;-80
2021/11/10 04:24:01;;;;;;;4.15;2.55;;;;;;;2.61;50.61;102454.53;465853;111;922693;-80
2021/11/10 04:25:06;;;;;;;4.54;2.23;;;;;;;2.59;50.24;102454.67;467165;112;922536;-82
2021/11/10 04:26:10;;;;;;;2.48;1.44;;;;;;;2.58;50.31;102455.64;466965;113;923071;-81
2021/11/10 04:27:14;;;;;;;3.49;1.34;;;;;;;2.57;50.36;102455.75;465843;112;923228;-78
2021/11/10 04:28:17;;;;;;;3.31;1.49;;;;;;;2.58;50.49;102465.55;467521;112;922706;-81
2021/11/10 04:29:22;;;;;;;5.94;3.65;;;;;;;2.58;50.05;102462.86;467977;112;922203;-83
2021/11/10 04:30:26;;;;;;;7.13;3.47;;;;;;;2.59;50.01;102467.27;467579;112;922337;-80
2021/11/10 04:31:31;;;;;;;7.24;3.68;;;;;;;2.58;50.25;102477.19;467509;112;922159;-80
2021/11/10 04:32:36;;;;;;;8.24;4.52;;;;;;;2.56;50.10;102465.66;468161;112;922214;-81
2021/11/10 04:33:40;;;;;;;12.58;4.21;;;;;;;2.56;50.23;102462.97;467469;111;922732;-80
2021/11/10 04:34:44;;;;;;;8.06;4.01;;;;;;;2.58;50.31;102477.19;467178;112;922216;-81
2021/11/10 04:35:48;;;;;;;9.16;4.35;;;;;;;2.59;50.43;102472.66;467491;112;922531;-80
2021/11/10 04:36:53;;;;;;;6.06;3.08;;;;;;;2.61;50.59;102474.23;467727;111;922128;-80
2021/11/10 04:37:57;;;;;;;5.00;2.59;;;;;;;2.65;50.47;102480.23;466313;112;930653;-81
2021/11/10 04:39:02;;;;;;;9.44;3.79;;;;;;;2.68;50.58;102482.72;467019;112;922534;-80
2021/11/10 04:40:09;;;;;;;9.72;3.88;;;;;;;2.70;50.57;102484.30;459720;113;930648;-82
2021/11/10 04:41:16;;;;;;;5.11;2.53;;;;;;;2.73;50.23;102494.86;459426;113;922489;-81
2021/11/10 04:42:20;;;;;;;3.88;2.22;;;;;;;2.72;50.00;102490.44;455424;114;922864;-81
2021/11/10 04:43:24;;;;;;;7.10;2.82;;;;;;;2.70;49.84;102499.62;456009;113;923210;-82
2021/11/10 04:44:29;;;;;;;5.04;2.96;;;;;;;2.67;50.06;102500.70;464878;112;922901;-81
2021/11/10 04:45:35;;;;;;;5.26;1.84;;;;;;;2.65;50.09;102505.34;465762;112;923114;-82
2021/11/10 04:46:39;;;;;;;2.94;1.71;;;;;;;2.64;49.79;102503.65;465740;112;922618;-80
2021/11/10 04:47:45;;;;;;;2.44;1.51;;;;;;;2.62;49.72;102515.50;466510;112;923041;-80
2021/11/10 04:48:49;;;;;;;3.45;1.51;;;;;;;2.60;49.84;102504.83;466062;111;922838;-80
2021/11/10 04:49:53;;;;;;;2.46;1.50;;;;;;;2.59;50.00;102510.36;465811;111;922630;-80
2021/11/10 04:50:57;;;;;;;1.78;1.64;;;;;;;2.61;50.10;102511.08;466462;112;922721;-79
2021/11/10 04:52:03;;;;;;;3.00;1.44;;;;;;;2.60;50.18;102510.22;466686;112;922525;-81
2021/11/10 04:53:08;;;;;;;4.21;1.93;;;;;;;2.62;50.30;102508.28;466196;112;922640;-80
2021/11/10 04:54:18;;;;;;;4.09;1.99;;;;;;;2.63;50.10;102534.23;466563;111;922957;-83
2021/11/10 04:55:18;;;;;;;6.21;2.21;;;;;;;2.63;50.06;102511.83;468046;111;922866;-82
2021/11/10 04:56:24;;;;;;;4.86;3.11;;;;;;;2.61;49.75;102528.10;466598;112;922595;-81
2021/11/10 04:57:30;;;;;;;4.48;2.09;;;;;;;2.59;49.56;102532.77;458892;113;923325;-83
2021/11/10 04:58:35;;;;;;;2.96;1.52;;;;;;;2.58;49.67;102535.56;459925;113;922668;-79
2021/11/10 04:59:39;;;;;;;4.28;2.92;;;;;;;2.56;49.81;102530.28;465881;112;922577;-82
2021/11/10 05:00:45;;;;;;;4.84;2.48;;;;;;;2.54;49.91;102540.30;466484;112;922907;-81
2021/11/10 05:03:16;;;;;;;4.16;1.82;;;;;;;2.55;50.10;102541.16;466413;112;923174;-79